sensor_id;sensor_type;location;lat;lon;timestamp;pressure;altitude;pressure_sealevel;temperature;humidity
77706;BME280;66874;45.274;5.880;2023-05-07T00:01:41;98784.06;;;18.57;62.03
77706;BME280;66874;45.274;5.880;2023-05-07T00:04:06;98780.63;;;18.54;62.06
77706;BME280;66874;45.274;5.880;2023-05-07T00:06:32;98776.84;;;18.59;61.89
77706;BME280;66874;45.274;5.880;2023-05-07T00:08:58;98780.19;;;18.62;62.18
77706;BME280;66874;45.274;5.880;2023-05-07T00:11:24;98781.91;;;18.63;62.12
77706;BME280;66874;45.274;5.880;2023-05-07T00:13:51;98786.44;;;18.61;62.26
77706;BME280;66874;45.274;5.880;2023-05-07T00:16:16;98783.84;;;18.60;62.31
77706;BME280;66874;45.274;5.880;2023-05-07T00:18:42;98784.06;;;18.57;62.52
77706;BME280;66874;45.274;5.880;2023-05-07T00:21:07;98781.63;;;18.52;62.75
77706;BME280;66874;45.274;5.880;2023-05-07T00:23:32;98781.06;;;18.47;62.82
77706;BME280;66874;45.274;5.880;2023-05-07T00:25:58;98787.56;;;18.41;62.81
77706;BME280;66874;45.274;5.880;2023-05-07T00:28:23;98784.28;;;18.36;63.01
77706;BME280;66874;45.274;5.880;2023-05-07T00:30:48;98774.56;;;18.37;62.84
77706;BME280;66874;45.274;5.880;2023-05-07T00:33:14;98780.63;;;18.39;62.65
77706;BME280;66874;45.274;5.880;2023-05-07T00:35:39;98772.84;;;18.36;62.72
77706;BME280;66874;45.274;5.880;2023-05-07T00:38:05;98794.47;;;18.28;62.57
77706;BME280;66874;45.274;5.880;2023-05-07T00:40:30;98789.84;;;18.16;62.43
77706;BME280;66874;45.274;5.880;2023-05-07T00:42:56;98790.25;;;18.08;62.68
77706;BME280;66874;45.274;5.880;2023-05-07T00:45:26;98787.16;;;18.00;62.90
77706;BME280;66874;45.274;5.880;2023-05-07T00:47:57;98788.00;;;17.85;63.10
77706;BME280;66874;45.274;5.880;2023-05-07T00:50:22;98798.25;;;17.73;63.33
77706;BME280;66874;45.274;5.880;2023-05-07T00:52:48;98791.56;;;17.66;63.10
77706;BME280;66874;45.274;5.880;2023-05-07T00:55:14;98791.72;;;17.63;62.94
77706;BME280;66874;45.274;5.880;2023-05-07T00:57:40;98796.00;;;17.66;62.62
77706;BME280;66874;45.274;5.880;2023-05-07T01:00:07;98802.16;;;17.66;62.30
77706;BME280;66874;45.274;5.880;2023-05-07T01:02:34;98804.88;;;17.65;62.02
77706;BME280;66874;45.274;5.880;2023-05-07T01:05:00;98807.84;;;17.58;61.60
77706;BME280;66874;45.274;5.880;2023-05-07T01:07:27;98814.47;;;17.50;61.19
77706;BME280;66874;45.274;5.880;2023-05-07T01:09:53;98811.19;;;17.45;60.49
77706;BME280;66874;45.274;5.880;2023-05-07T01:12:19;98812.28;;;17.41;60.28
77706;BME280;66874;45.274;5.880;2023-05-07T01:14:44;98812.47;;;17.38;59.65
77706;BME280;66874;45.274;5.880;2023-05-07T01:17:10;98813.47;;;17.35;59.65
77706;BME280;66874;45.274;5.880;2023-05-07T01:19:35;98811.06;;;17.30;59.39
77706;BME280;66874;45.274;5.880;2023-05-07T01:22:04;98814.00;;;17.24;59.32
77706;BME280;66874;45.274;5.880;2023-05-07T01:24:32;98820.59;;;17.16;59.27
77706;BME280;66874;45.274;5.880;2023-05-07T01:26:58;98821.84;;;17.08;58.91
77706;BME280;66874;45.274;5.880;2023-05-07T01:29:24;98822.13;;;17.02;59.19
77706;BME280;66874;45.274;5.880;2023-05-07T01:31:50;98824.84;;;17.01;59.21
77706;BME280;66874;45.274;5.880;2023-05-07T01:34:17;98821.50;;;16.97;59.45
77706;BME280;66874;45.274;5.880;2023-05-07T01:36:44;98821.66;;;16.94;59.28
77706;BME280;66874;45.274;5.880;2023-05-07T01:39:10;98827.78;;;16.95;59.18
77706;BME280;66874;45.274;5.880;2023-05-07T01:41:36;98824.09;;;16.99;59.02
77706;BME280;66874;45.274;5.880;2023-05-07T01:44:02;98829.19;;;17.02;59.06
77706;BME280;66874;45.274;5.880;2023-05-07T01:46:28;98820.41;;;17.01;58.66
77706;BME280;66874;45.274;5.880;2023-05-07T01:48:55;98819.72;;;16.98;58.74
77706;BME280;66874;45.274;5.880;2023-05-07T01:51:21;98817.88;;;17.00;58.61
77706;BME280;66874;45.274;5.880;2023-05-07T01:53:47;98817.50;;;17.07;58.42
77706;BME280;66874;45.274;5.880;2023-05-07T01:56:17;98820.03;;;17.09;58.00
77706;BME280;66874;45.274;5.880;2023-05-07T01:58:43;98813.91;;;17.08;57.78
77706;BME280;66874;45.274;5.880;2023-05-07T02:01:09;98816.41;;;17.12;57.70
77706;BME280;66874;45.274;5.880;2023-05-07T02:03:34;98810.97;;;17.15;57.76
77706;BME280;66874;45.274;5.880;2023-05-07T02:06:00;98821.44;;;17.16;57.75
77706;BME280;66874;45.274;5.880;2023-05-07T02:08:26;98810.88;;;17.16;57.80
77706;BME280;66874;45.274;5.880;2023-05-07T02:10:51;98817.09;;;17.15;57.88
77706;BME280;66874;45.274;5.880;2023-05-07T02:13:19;98815.38;;;17.14;57.86
77706;BME280;66874;45.274;5.880;2023-05-07T02:15:45;98815.69;;;17.08;57.98
77706;BME280;66874;45.274;5.880;2023-05-07T02:18:15;98815.09;;;17.03;58.19
77706;BME280;66874;45.274;5.880;2023-05-07T02:20:41;98811.63;;;17.01;58.27
77706;BME280;66874;45.274;5.880;2023-05-07T02:23:06;98804.00;;;16.95;58.15
77706;BME280;66874;45.274;5.880;2023-05-07T02:25:32;98802.44;;;16.91;58.35
77706;BME280;66874;45.274;5.880;2023-05-07T02:27:57;98811.31;;;16.90;58.63
77706;BME280;66874;45.274;5.880;2023-05-07T02:30:22;98811.44;;;16.87;58.44
77706;BME280;66874;45.274;5.880;2023-05-07T02:32:48;98822.25;;;16.82;58.38
77706;BME280;66874;45.274;5.880;2023-05-07T02:35:14;98819.00;;;16.77;58.67
77706;BME280;66874;45.274;5.880;2023-05-07T02:37:39;98823.75;;;16.69;59.12
77706;BME280;66874;45.274;5.880;2023-05-07T02:40:05;98814.47;;;16.60;59.40
77706;BME280;66874;45.274;5.880;2023-05-07T02:42:31;98816.19;;;16.42;59.75
77706;BME280;66874;45.274;5.880;2023-05-07T02:44:56;98812.28;;;16.32;59.84
77706;BME280;66874;45.274;5.880;2023-05-07T02:47:22;98819.56;;;16.27;59.96
77706;BME280;66874;45.274;5.880;2023-05-07T02:49:47;98829.25;;;16.26;59.69
77706;BME280;66874;45.274;5.880;2023-05-07T02:52:13;98828.59;;;16.21;59.62
77706;BME280;66874;45.274;5.880;2023-05-07T02:54:38;98833.09;;;16.19;59.63
77706;BME280;66874;45.274;5.880;2023-05-07T02:57:03;98829.63;;;16.19;59.54
77706;BME280;66874;45.274;5.880;2023-05-07T02:59:29;98838.31;;;16.21;59.74
77706;BME280;66874;45.274;5.880;2023-05-07T03:01:54;98833.97;;;16.20;59.99
77706;BME280;66874;45.274;5.880;2023-05-07T03:04:19;98848.09;;;16.19;59.92
77706;BME280;66874;45.274;5.880;2023-05-07T03:06:45;98842.13;;;16.14;60.35
77706;BME280;66874;45.274;5.880;2023-05-07T03:09:10;98853.63;;;16.13;60.83
77706;BME280;66874;45.274;5.880;2023-05-07T03:11:36;98847.50;;;16.12;61.24
77706;BME280;66874;45.274;5.880;2023-05-07T03:14:02;98845.94;;;16.08;61.41
77706;BME280;66874;45.274;5.880;2023-05-07T03:16:27;98844.22;;;16.07;61.68
77706;BME280;66874;45.274;5.880;2023-05-07T03:18:53;98845.06;;;16.07;61.92
77706;BME280;66874;45.274;5.880;2023-05-07T03:21:18;98844.16;;;16.08;61.96
77706;BME280;66874;45.274;5.880;2023-05-07T03:23:44;98840.78;;;16.05;61.99
77706;BME280;66874;45.274;5.880;2023-05-07T03:26:10;98841.84;;;16.01;61.91
77706;BME280;66874;45.274;5.880;2023-05-07T03:28:35;98838.34;;;16.00;62.26
77706;BME280;66874;45.274;5.880;2023-05-07T03:31:00;98841.94;;;15.99;62.43
77706;BME280;66874;45.274;5.880;2023-05-07T03:33:26;98838.63;;;15.94;62.59
77706;BME280;66874;45.274;5.880;2023-05-07T03:35:52;98843.38;;;15.86;62.78
77706;BME280;66874;45.274;5.880;2023-05-07T03:38:18;98839.25;;;15.80;62.95
77706;BME280;66874;45.274;5.880;2023-05-07T03:40:43;98837.78;;;15.73;63.14
77706;BME280;66874;45.274;5.880;2023-05-07T03:43:09;98833.75;;;15.65;63.61
77706;BME280;66874;45.274;5.880;2023-05-07T03:45:35;98839.16;;;15.61;63.39
77706;BME280;66874;45.274;5.880;2023-05-07T03:48:00;98846.22;;;15.61;63.71
77706;BME280;66874;45.274;5.880;2023-05-07T03:50:25;98847.31;;;15.55;64.07
77706;BME280;66874;45.274;5.880;2023-05-07T03:52:51;98851.22;;;15.47;63.94
77706;BME280;66874;45.274;5.880;2023-05-07T03:55:16;98851.66;;;15.36;64.06
77706;BME280;66874;45.274;5.880;2023-05-07T03:57:42;98845.78;;;15.29;64.33
77706;BME280;66874;45.274;5.880;2023-05-07T04:00:07;98851.31;;;15.23;64.48
77706;BME280;66874;45.274;5.880;2023-05-07T04:02:33;98850.59;;;15.20;64.75
77706;BME280;66874;45.274;5.880;2023-05-07T04:04:58;98854.28;;;15.16;64.84
77706;BME280;66874;45.274;5.880;2023-05-07T04:07:24;98849.94;;;15.14;64.96
77706;BME280;66874;45.274;5.880;2023-05-07T04:09:49;98851.75;;;15.12;64.97
77706;BME280;66874;45.274;5.880;2023-05-07T04:12:15;98850.09;;;15.10;65.15
77706;BME280;66874;45.274;5.880;2023-05-07T04:14:40;98856.28;;;15.09;65.10
77706;BME280;66874;45.274;5.880;2023-05-07T04:17:05;98856.50;;;15.04;65.26
77706;BME280;66874;45.274;5.880;2023-05-07T04:19:33;98858.31;;;15.02;65.39
77706;BME280;66874;45.274;5.880;2023-05-07T04:21:58;98860.28;;;14.97;65.59
77706;BME280;66874;45.274;5.880;2023-05-07T04:24:24;98870.94;;;14.94;65.79
77706;BME280;66874;45.274;5.880;2023-05-07T04:26:49;98871.13;;;14.89;66.06
77706;BME280;66874;45.274;5.880;2023-05-07T04:29:16;98873.84;;;14.88;65.87
77706;BME280;66874;45.274;5.880;2023-05-07T04:31:42;98872.09;;;14.87;65.95
77706;BME280;66874;45.274;5.880;2023-05-07T04:34:10;98869.53;;;14.85;66.09
77706;BME280;66874;45.274;5.880;2023-05-07T04:36:37;98863.34;;;14.86;66.20
77706;BME280;66874;45.274;5.880;2023-05-07T04:39:03;98870.34;;;14.87;66.02
77706;BME280;66874;45.274;5.880;2023-05-07T04:41:29;98870.34;;;14.87;65.92
77706;BME280;66874;45.274;5.880;2023-05-07T04:43:54;98871.06;;;14.91;66.03
77706;BME280;66874;45.274;5.880;2023-05-07T04:46:20;98870.19;;;14.90;66.04
77706;BME280;66874;45.274;5.880;2023-05-07T04:48:45;98876.09;;;14.97;66.13
77706;BME280;66874;45.274;5.880;2023-05-07T04:51:11;98882.03;;;15.02;66.04
77706;BME280;66874;45.274;5.880;2023-05-07T04:53:37;98880.97;;;15.06;65.83
77706;BME280;66874;45.274;5.880;2023-05-07T04:56:03;98879.03;;;15.11;65.83
77706;BME280;66874;45.274;5.880;2023-05-07T04:58:28;98889.50;;;15.13;66.09
77706;BME280;66874;45.274;5.880;2023-05-07T05:00:57;98888.41;;;15.19;65.65
77706;BME280;66874;45.274;5.880;2023-05-07T05:03:22;98887.38;;;15.23;65.82
77706;BME280;66874;45.274;5.880;2023-05-07T05:05:51;98886.25;;;15.28;65.50
77706;BME280;66874;45.274;5.880;2023-05-07T05:08:17;98895.84;;;15.29;65.68
77706;BME280;66874;45.274;5.880;2023-05-07T05:10:43;98904.56;;;15.31;65.46
77706;BME280;66874;45.274;5.880;2023-05-07T05:13:09;98903.59;;;15.34;65.71
77706;BME280;66874;45.274;5.880;2023-05-07T05:15:35;98903.63;;;15.32;65.92
77706;BME280;66874;45.274;5.880;2023-05-07T05:18:01;98907.09;;;15.12;66.55
77706;BME280;66874;45.274;5.880;2023-05-07T05:20:26;98903.16;;;15.01;66.78
77706;BME280;66874;45.274;5.880;2023-05-07T05:22:52;98910.41;;;14.96;66.92
77706;BME280;66874;45.274;5.880;2023-05-07T05:25:17;98907.22;;;14.87;67.02
77706;BME280;66874;45.274;5.880;2023-05-07T05:27:42;98912.47;;;14.87;66.85
77706;BME280;66874;45.274;5.880;2023-05-07T05:30:08;98902.66;;;14.91;66.94
77706;BME280;66874;45.274;5.880;2023-05-07T05:32:34;98907.63;;;14.99;66.78
77706;BME280;66874;45.274;5.880;2023-05-07T05:34:59;98897.66;;;15.07;66.78
77706;BME280;66874;45.274;5.880;2023-05-07T05:37:25;98911.53;;;15.10;66.95
77706;BME280;66874;45.274;5.880;2023-05-07T05:39:50;98907.94;;;15.13;66.88
77706;BME280;66874;45.274;5.880;2023-05-07T05:42:16;98908.69;;;15.17;66.94
77706;BME280;66874;45.274;5.880;2023-05-07T05:44:41;98905.00;;;15.21;66.85
77706;BME280;66874;45.274;5.880;2023-05-07T05:47:06;98905.53;;;15.29;67.12
77706;BME280;66874;45.274;5.880;2023-05-07T05:49:32;98904.44;;;15.34;66.92
77706;BME280;66874;45.274;5.880;2023-05-07T05:51:57;98905.91;;;15.42;66.96
77706;BME280;66874;45.274;5.880;2023-05-07T05:54:22;98898.59;;;15.48;67.00
77706;BME280;66874;45.274;5.880;2023-05-07T05:56:48;98901.19;;;15.50;67.00
77706;BME280;66874;45.274;5.880;2023-05-07T05:59:14;98900.16;;;15.52;67.11
77706;BME280;66874;45.274;5.880;2023-05-07T06:01:40;98894.84;;;15.54;66.99
77706;BME280;66874;45.274;5.880;2023-05-07T06:04:05;98896.22;;;15.62;67.04
77706;BME280;66874;45.274;5.880;2023-05-07T06:06:31;98902.94;;;15.71;67.34
77706;BME280;66874;45.274;5.880;2023-05-07T06:08:57;98903.41;;;15.81;67.18
77706;BME280;66874;45.274;5.880;2023-05-07T06:11:22;98906.63;;;15.88;67.25
77706;BME280;66874;45.274;5.880;2023-05-07T06:13:48;98905.63;;;15.90;67.30
77706;BME280;66874;45.274;5.880;2023-05-07T06:16:14;98905.03;;;15.83;67.50
77706;BME280;66874;45.274;5.880;2023-05-07T06:18:40;98905.34;;;15.76;67.65
77706;BME280;66874;45.274;5.880;2023-05-07T06:21:05;98905.97;;;15.82;67.62
77706;BME280;66874;45.274;5.880;2023-05-07T06:23:31;98907.66;;;15.83;67.17
77706;BME280;66874;45.274;5.880;2023-05-07T06:25:56;98911.31;;;15.81;67.07
77706;BME280;66874;45.274;5.880;2023-05-07T06:28:22;98912.91;;;15.85;66.81
77706;BME280;66874;45.274;5.880;2023-05-07T06:30:47;98915.41;;;15.88;66.59
77706;BME280;66874;45.274;5.880;2023-05-07T06:33:15;98921.47;;;15.90;66.19
77706;BME280;66874;45.274;5.880;2023-05-07T06:35:40;98916.88;;;15.95;65.87
77706;BME280;66874;45.274;5.880;2023-05-07T06:38:06;98913.72;;;16.06;65.70
77706;BME280;66874;45.274;5.880;2023-05-07T06:40:31;98904.38;;;16.19;65.72
77706;BME280;66874;45.274;5.880;2023-05-07T06:42:56;98912.06;;;16.24;65.72
77706;BME280;66874;45.274;5.880;2023-05-07T06:45:22;98921.91;;;16.20;65.79
77706;BME280;66874;45.274;5.880;2023-05-07T06:47:47;98923.69;;;16.20;66.01
77706;BME280;66874;45.274;5.880;2023-05-07T06:50:13;98929.09;;;16.17;66.10
77706;BME280;66874;45.274;5.880;2023-05-07T06:52:38;98928.50;;;16.10;66.24
77706;BME280;66874;45.274;5.880;2023-05-07T06:55:04;98916.88;;;16.14;66.32
77706;BME280;66874;45.274;5.880;2023-05-07T06:57:30;98912.78;;;16.27;66.24
77706;BME280;66874;45.274;5.880;2023-05-07T06:59:55;98908.59;;;16.42;66.14
77706;BME280;66874;45.274;5.880;2023-05-07T07:02:21;98912.16;;;16.60;65.98
77706;BME280;66874;45.274;5.880;2023-05-07T07:04:46;98916.88;;;16.74;65.21
77706;BME280;66874;45.274;5.880;2023-05-07T07:07:11;98913.78;;;16.83;64.78
77706;BME280;66874;45.274;5.880;2023-05-07T07:09:37;98906.06;;;16.97;64.43
77706;BME280;66874;45.274;5.880;2023-05-07T07:12:02;98903.69;;;17.10;64.06
77706;BME280;66874;45.274;5.880;2023-05-07T07:14:28;98901.22;;;17.24;63.55
77706;BME280;66874;45.274;5.880;2023-05-07T07:16:53;98909.59;;;17.34;62.60
77706;BME280;66874;45.274;5.880;2023-05-07T07:19:19;98903.34;;;17.52;62.64
77706;BME280;66874;45.274;5.880;2023-05-07T07:21:45;98901.81;;;17.66;62.18
77706;BME280;66874;45.274;5.880;2023-05-07T07:24:10;98898.78;;;17.73;61.63
77706;BME280;66874;45.274;5.880;2023-05-07T07:26:36;98911.88;;;17.94;61.74
77706;BME280;66874;45.274;5.880;2023-05-07T07:29:01;98912.03;;;18.08;61.31
77706;BME280;66874;45.274;5.880;2023-05-07T07:31:27;98909.50;;;18.22;60.92
77706;BME280;66874;45.274;5.880;2023-05-07T07:33:52;98905.25;;;18.36;60.80
77706;BME280;66874;45.274;5.880;2023-05-07T07:36:17;98909.91;;;18.48;60.44
77706;BME280;66874;45.274;5.880;2023-05-07T07:38:43;98915.88;;;18.51;59.49
77706;BME280;66874;45.274;5.880;2023-05-07T07:41:08;98916.22;;;18.45;59.60
77706;BME280;66874;45.274;5.880;2023-05-07T07:43:34;98919.09;;;18.41;59.40
77706;BME280;66874;45.274;5.880;2023-05-07T07:46:00;98922.44;;;18.44;59.55
77706;BME280;66874;45.274;5.880;2023-05-07T07:48:26;98924.00;;;18.48;59.44
77706;BME280;66874;45.274;5.880;2023-05-07T07:50:51;98921.53;;;18.45;59.52
77706;BME280;66874;45.274;5.880;2023-05-07T07:53:17;98920.75;;;18.43;59.62
77706;BME280;66874;45.274;5.880;2023-05-07T07:55:43;98926.03;;;18.43;59.67
77706;BME280;66874;45.274;5.880;2023-05-07T07:58:08;98922.38;;;18.46;59.69
77706;BME280;66874;45.274;5.880;2023-05-07T08:00:34;98935.06;;;18.57;59.76
77706;BME280;66874;45.274;5.880;2023-05-07T08:02:59;98933.94;;;18.61;59.37
77706;BME280;66874;45.274;5.880;2023-05-07T08:05:25;98938.84;;;18.68;59.04
77706;BME280;66874;45.274;5.880;2023-05-07T08:07:51;98948.44;;;18.71;58.47
77706;BME280;66874;45.274;5.880;2023-05-07T08:10:18;98935.81;;;18.59;59.03
77706;BME280;66874;45.274;5.880;2023-05-07T08:12:48;98942.81;;;18.60;59.38
77706;BME280;66874;45.274;5.880;2023-05-07T08:15:13;98936.81;;;18.56;59.20
77706;BME280;66874;45.274;5.880;2023-05-07T08:17:39;98933.84;;;18.62;59.74
77706;BME280;66874;45.274;5.880;2023-05-07T08:20:05;98932.66;;;18.68;59.54
77706;BME280;66874;45.274;5.880;2023-05-07T08:22:30;98938.84;;;18.68;59.06
77706;BME280;66874;45.274;5.880;2023-05-07T08:24:56;98929.72;;;18.74;59.33
77706;BME280;66874;45.274;5.880;2023-05-07T08:27:21;98934.25;;;18.72;59.20
77706;BME280;66874;45.274;5.880;2023-05-07T08:29:46;98931.34;;;18.76;59.04
77706;BME280;66874;45.274;5.880;2023-05-07T08:32:13;98932.22;;;18.77;58.69
77706;BME280;66874;45.274;5.880;2023-05-07T08:34:38;98931.84;;;18.83;58.41
77706;BME280;66874;45.274;5.880;2023-05-07T08:37:04;98928.56;;;18.95;58.42
77706;BME280;66874;45.274;5.880;2023-05-07T08:39:29;98930.25;;;19.12;58.28
77706;BME280;66874;45.274;5.880;2023-05-07T08:41:55;98922.63;;;19.22;57.91
77706;BME280;66874;45.274;5.880;2023-05-07T08:44:26;98934.59;;;19.29;57.67
77706;BME280;66874;45.274;5.880;2023-05-07T08:46:53;98940.94;;;19.26;57.54
77706;BME280;66874;45.274;5.880;2023-05-07T08:49:20;98937.69;;;19.37;57.68
77706;BME280;66874;45.274;5.880;2023-05-07T08:51:45;98938.31;;;19.41;57.59
77706;BME280;66874;45.274;5.880;2023-05-07T08:54:11;98936.47;;;19.43;57.57
77706;BME280;66874;45.274;5.880;2023-05-07T08:56:37;98938.56;;;19.52;57.38
77706;BME280;66874;45.274;5.880;2023-05-07T08:59:05;98938.13;;;19.60;57.20
77706;BME280;66874;45.274;5.880;2023-05-07T09:01:30;98926.19;;;19.68;57.17
77706;BME280;66874;45.274;5.880;2023-05-07T09:03:56;98932.34;;;19.69;56.73
77706;BME280;66874;45.274;5.880;2023-05-07T09:06:21;98936.19;;;19.63;56.98
77706;BME280;66874;45.274;5.880;2023-05-07T09:08:51;98941.59;;;19.62;56.57
77706;BME280;66874;45.274;5.880;2023-05-07T09:11:22;98937.72;;;19.51;56.91
77706;BME280;66874;45.274;5.880;2023-05-07T09:13:49;98930.81;;;19.49;57.35
77706;BME280;66874;45.274;5.880;2023-05-07T09:16:15;98936.78;;;19.37;57.18
77706;BME280;66874;45.274;5.880;2023-05-07T09:18:42;98941.09;;;19.23;57.78
77706;BME280;66874;45.274;5.880;2023-05-07T09:21:14;98949.81;;;19.10;58.82
77706;BME280;66874;45.274;5.880;2023-05-07T09:23:40;98952.91;;;19.02;59.40
77706;BME280;66874;45.274;5.880;2023-05-07T09:26:06;98955.28;;;18.91;60.06
77706;BME280;66874;45.274;5.880;2023-05-07T09:28:38;98961.91;;;18.66;60.62
77706;BME280;66874;45.274;5.880;2023-05-07T09:31:05;98961.72;;;18.36;61.23
77706;BME280;66874;45.274;5.880;2023-05-07T09:33:30;98963.63;;;18.17;62.30
77706;BME280;66874;45.274;5.880;2023-05-07T09:35:55;98963.41;;;18.04;62.57
77706;BME280;66874;45.274;5.880;2023-05-07T09:38:21;98971.88;;;17.93;62.72
77706;BME280;66874;45.274;5.880;2023-05-07T09:40:47;98976.81;;;17.84;63.23
77706;BME280;66874;45.274;5.880;2023-05-07T09:43:13;98979.84;;;17.76;63.46
77706;BME280;66874;45.274;5.880;2023-05-07T09:45:39;98984.59;;;17.68;63.84
77706;BME280;66874;45.274;5.880;2023-05-07T09:48:06;98993.97;;;17.56;64.44
77706;BME280;66874;45.274;5.880;2023-05-07T09:50:36;98990.81;;;17.49;64.68
77706;BME280;66874;45.274;5.880;2023-05-07T09:53:06;98999.81;;;17.45;64.57
77706;BME280;66874;45.274;5.880;2023-05-07T09:55:35;99001.19;;;17.35;64.57
77706;BME280;66874;45.274;5.880;2023-05-07T09:58:01;99007.69;;;17.28;65.17
77706;BME280;66874;45.274;5.880;2023-05-07T10:00:28;99005.31;;;17.22;65.81
77706;BME280;66874;45.274;5.880;2023-05-07T10:02:57;99012.00;;;17.12;66.35
77706;BME280;66874;45.274;5.880;2023-05-07T10:05:22;99011.31;;;17.06;67.21
77706;BME280;66874;45.274;5.880;2023-05-07T10:07:49;99012.69;;;16.96;67.79
77706;BME280;66874;45.274;5.880;2023-05-07T10:10:15;99012.31;;;16.85;68.22
77706;BME280;66874;45.274;5.880;2023-05-07T10:12:42;99014.47;;;16.77;68.66
77706;BME280;66874;45.274;5.880;2023-05-07T10:15:09;99018.19;;;16.71;68.89
77706;BME280;66874;45.274;5.880;2023-05-07T10:17:36;99023.69;;;16.67;69.64
77706;BME280;66874;45.274;5.880;2023-05-07T10:20:03;99017.88;;;16.58;69.68
77706;BME280;66874;45.274;5.880;2023-05-07T10:22:33;99015.50;;;16.52;69.95
77706;BME280;66874;45.274;5.880;2023-05-07T10:25:02;99014.72;;;16.50;69.79
77706;BME280;66874;45.274;5.880;2023-05-07T10:27:29;99014.66;;;16.52;69.82
77706;BME280;66874;45.274;5.880;2023-05-07T10:32:51;99021.25;;;16.62;70.04
77706;BME280;66874;45.274;5.880;2023-05-07T10:35:21;99014.09;;;16.64;69.78
77706;BME280;66874;45.274;5.880;2023-05-07T10:37:48;99028.03;;;16.68;69.90
77706;BME280;66874;45.274;5.880;2023-05-07T10:40:14;99018.19;;;16.71;70.20
77706;BME280;66874;45.274;5.880;2023-05-07T10:42:53;99027.69;;;16.77;70.68
77706;BME280;66874;45.274;5.880;2023-05-07T10:45:20;99031.09;;;16.79;70.75
77706;BME280;66874;45.274;5.880;2023-05-07T10:48:08;99023.03;;;16.82;71.04
77706;BME280;66874;45.274;5.880;2023-05-07T10:50:34;99029.50;;;16.75;70.50
77706;BME280;66874;45.274;5.880;2023-05-07T10:55:44;99026.06;;;16.73;71.19
77706;BME280;66874;45.274;5.880;2023-05-07T11:00:48;99025.81;;;16.79;70.88
77706;BME280;66874;45.274;5.880;2023-05-07T11:03:13;99027.59;;;16.78;70.91
77706;BME280;66874;45.274;5.880;2023-05-07T11:05:41;99025.66;;;16.82;70.89
77706;BME280;66874;45.274;5.880;2023-05-07T11:08:08;99029.75;;;16.89;71.13
77706;BME280;66874;45.274;5.880;2023-05-07T11:13:15;99036.72;;;17.11;70.63
77706;BME280;66874;45.274;5.880;2023-05-07T11:15:43;99031.97;;;17.17;70.58
77706;BME280;66874;45.274;5.880;2023-05-07T11:18:10;99030.50;;;17.30;70.14
77706;BME280;66874;45.274;5.880;2023-05-07T11:20:49;99027.63;;;17.35;69.65
77706;BME280;66874;45.274;5.880;2023-05-07T11:26:10;99034.63;;;17.36;69.29
77706;BME280;66874;45.274;5.880;2023-05-07T11:28:41;99038.28;;;17.33;69.09
77706;BME280;66874;45.274;5.880;2023-05-07T11:31:07;99041.69;;;17.36;68.89
77706;BME280;66874;45.274;5.880;2023-05-07T11:33:33;99038.97;;;17.37;68.11
77706;BME280;66874;45.274;5.880;2023-05-07T11:36:00;99033.63;;;17.39;67.98
77706;BME280;66874;45.274;5.880;2023-05-07T11:38:25;99043.25;;;17.40;67.42
77706;BME280;66874;45.274;5.880;2023-05-07T11:41:00;99043.97;;;17.43;67.43
77706;BME280;66874;45.274;5.880;2023-05-07T11:43:27;99040.41;;;17.44;67.36
77706;BME280;66874;45.274;5.880;2023-05-07T11:45:52;99041.97;;;17.48;67.35
77706;BME280;66874;45.274;5.880;2023-05-07T11:48:18;99046.47;;;17.46;67.25
77706;BME280;66874;45.274;5.880;2023-05-07T11:53:27;99046.41;;;17.48;66.95
77706;BME280;66874;45.274;5.880;2023-05-07T11:55:54;99047.81;;;17.55;67.14
77706;BME280;66874;45.274;5.880;2023-05-07T11:58:22;99047.53;;;17.61;67.31
77706;BME280;66874;45.274;5.880;2023-05-07T12:00:51;99045.25;;;17.72;67.32
77706;BME280;66874;45.274;5.880;2023-05-07T12:03:17;99048.44;;;17.79;67.55
77706;BME280;66874;45.274;5.880;2023-05-07T12:05:46;99050.53;;;17.91;67.37
77706;BME280;66874;45.274;5.880;2023-05-07T12:08:16;99042.19;;;17.99;67.05
77706;BME280;66874;45.274;5.880;2023-05-07T12:10:49;99042.34;;;18.13;66.69
77706;BME280;66874;45.274;5.880;2023-05-07T12:13:23;99046.97;;;18.27;66.02
77706;BME280;66874;45.274;5.880;2023-05-07T12:15:52;99049.59;;;18.27;65.78
77706;BME280;66874;45.274;5.880;2023-05-07T12:18:18;99053.19;;;18.26;65.69
77706;BME280;66874;45.274;5.880;2023-05-07T12:20:45;99048.06;;;18.23;65.32
77706;BME280;66874;45.274;5.880;2023-05-07T12:23:11;99044.47;;;18.24;64.87
77706;BME280;66874;45.274;5.880;2023-05-07T12:25:37;99041.41;;;18.32;64.74
77706;BME280;66874;45.274;5.880;2023-05-07T12:28:04;99044.63;;;18.38;64.34
77706;BME280;66874;45.274;5.880;2023-05-07T12:30:40;99048.13;;;18.39;63.90
77706;BME280;66874;45.274;5.880;2023-05-07T12:33:06;99054.28;;;18.39;63.40
77706;BME280;66874;45.274;5.880;2023-05-07T12:35:36;99052.94;;;18.48;63.62
77706;BME280;66874;45.274;5.880;2023-05-07T12:38:02;99050.75;;;18.56;63.66
77706;BME280;66874;45.274;5.880;2023-05-07T12:40:55;99057.97;;;18.70;63.38
77706;BME280;66874;45.274;5.880;2023-05-07T12:45:48;99054.00;;;18.78;62.97
77706;BME280;66874;45.274;5.880;2023-05-07T12:48:14;99057.06;;;18.71;62.18
77706;BME280;66874;45.274;5.880;2023-05-07T12:50:40;99056.34;;;18.67;62.32
77706;BME280;66874;45.274;5.880;2023-05-07T12:53:07;99057.19;;;18.68;62.84
77706;BME280;66874;45.274;5.880;2023-05-07T12:55:47;99055.72;;;18.62;62.12
77706;BME280;66874;45.274;5.880;2023-05-07T12:58:39;99054.47;;;18.52;61.63
77706;BME280;66874;45.274;5.880;2023-05-07T13:01:06;99053.78;;;18.48;62.12
77706;BME280;66874;45.274;5.880;2023-05-07T13:03:34;99060.56;;;18.54;62.21
77706;BME280;66874;45.274;5.880;2023-05-07T13:06:05;99057.06;;;18.53;62.06
77706;BME280;66874;45.274;5.880;2023-05-07T13:08:36;99055.56;;;18.65;61.87
77706;BME280;66874;45.274;5.880;2023-05-07T13:11:03;99047.63;;;18.65;61.81
77706;BME280;66874;45.274;5.880;2023-05-07T13:13:34;99053.00;;;18.64;61.91
77706;BME280;66874;45.274;5.880;2023-05-07T13:16:01;99053.00;;;18.64;61.98